sensor_id;sensor_type;location;lat;lon;timestamp;P1;durP1;ratioP1;P2;durP2;ratioP2
15281;SDS011;7742;44.320;19.820;2024-02-21T00:00:27;18.20;;;17.10;;
15281;SDS011;7742;44.320;19.820;2024-02-21T00:02:54;16.20;;;15.30;;
15281;SDS011;7742;44.320;19.820;2024-02-21T00:05:21;16.70;;;15.70;;
15281;SDS011;7742;44.320;19.820;2024-02-21T00:07:48;16.37;;;15.47;;
15281;SDS011;7742;44.320;19.820;2024-02-21T00:10:16;17.20;;;16.03;;
15281;SDS011;7742;44.320;19.820;2024-02-21T00:12:43;17.37;;;16.37;;
15281;SDS011;7742;44.320;19.820;2024-02-21T00:15:10;17.50;;;16.30;;
15281;SDS011;7742;44.320;19.820;2024-02-21T00:17:37;20.17;;;18.77;;
15281;SDS011;7742;44.320;19.820;2024-02-21T00:20:05;18.30;;;17.00;;
15281;SDS011;7742;44.320;19.820;2024-02-21T00:22:32;17.73;;;16.53;;
15281;SDS011;7742;44.320;19.820;2024-02-21T00:24:59;15.67;;;14.67;;
15281;SDS011;7742;44.320;19.820;2024-02-21T00:27:27;16.57;;;15.57;;
15281;SDS011;7742;44.320;19.820;2024-02-21T00:29:54;17.40;;;16.30;;
15281;SDS011;7742;44.320;19.820;2024-02-21T00:32:21;17.07;;;16.07;;
15281;SDS011;7742;44.320;19.820;2024-02-21T00:34:48;17.03;;;15.90;;
15281;SDS011;7742;44.320;19.820;2024-02-21T00:37:15;17.57;;;16.37;;
15281;SDS011;7742;44.320;19.820;2024-02-21T00:39:42;17.93;;;16.87;;
15281;SDS011;7742;44.320;19.820;2024-02-21T00:42:09;18.70;;;17.50;;
15281;SDS011;7742;44.320;19.820;2024-02-21T00:44:38;17.73;;;16.63;;
15281;SDS011;7742;44.320;19.820;2024-02-21T00:47:05;18.13;;;16.97;;
15281;SDS011;7742;44.320;19.820;2024-02-21T00:49:32;18.37;;;17.20;;
15281;SDS011;7742;44.320;19.820;2024-02-21T00:51:59;16.93;;;15.83;;
15281;SDS011;7742;44.320;19.820;2024-02-21T00:54:26;17.77;;;16.67;;
15281;SDS011;7742;44.320;19.820;2024-02-21T00:56:53;17.03;;;16.03;;
15281;SDS011;7742;44.320;19.820;2024-02-21T00:59:20;17.87;;;16.77;;
15281;SDS011;7742;44.320;19.820;2024-02-21T01:01:48;17.03;;;16.00;;
15281;SDS011;7742;44.320;19.820;2024-02-21T01:04:15;17.00;;;16.00;;
15281;SDS011;7742;44.320;19.820;2024-02-21T01:06:42;17.27;;;16.07;;
15281;SDS011;7742;44.320;19.820;2024-02-21T01:09:09;19.23;;;17.77;;
15281;SDS011;7742;44.320;19.820;2024-02-21T01:11:36;19.53;;;18.13;;
15281;SDS011;7742;44.320;19.820;2024-02-21T01:14:03;17.00;;;15.83;;
15281;SDS011;7742;44.320;19.820;2024-02-21T01:16:30;17.10;;;15.90;;
15281;SDS011;7742;44.320;19.820;2024-02-21T01:18:58;18.27;;;16.87;;
15281;SDS011;7742;44.320;19.820;2024-02-21T01:21:25;17.20;;;16.03;;
15281;SDS011;7742;44.320;19.820;2024-02-21T01:23:52;18.50;;;17.30;;
15281;SDS011;7742;44.320;19.820;2024-02-21T01:26:19;17.47;;;16.40;;
15281;SDS011;7742;44.320;19.820;2024-02-21T01:28:46;14.90;;;13.93;;
15281;SDS011;7742;44.320;19.820;2024-02-21T01:31:13;18.27;;;17.00;;
15281;SDS011;7742;44.320;19.820;2024-02-21T01:33:40;17.40;;;16.13;;
15281;SDS011;7742;44.320;19.820;2024-02-21T01:36:09;17.23;;;16.03;;
15281;SDS011;7742;44.320;19.820;2024-02-21T01:38:36;17.40;;;16.20;;
15281;SDS011;7742;44.320;19.820;2024-02-21T01:41:03;50.33;;;46.63;;
15281;SDS011;7742;44.320;19.820;2024-02-21T01:43:44;17.00;;;15.90;;
15281;SDS011;7742;44.320;19.820;2024-02-21T01:46:11;16.50;;;15.50;;
15281;SDS011;7742;44.320;19.820;2024-02-21T01:48:38;17.80;;;16.63;;
15281;SDS011;7742;44.320;19.820;2024-02-21T01:51:05;18.07;;;16.87;;
15281;SDS011;7742;44.320;19.820;2024-02-21T01:53:34;18.10;;;16.97;;
15281;SDS011;7742;44.320;19.820;2024-02-21T01:56:02;17.63;;;16.53;;
15281;SDS011;7742;44.320;19.820;2024-02-21T01:58:30;17.17;;;16.07;;
15281;SDS011;7742;44.320;19.820;2024-02-21T02:00:58;18.67;;;17.27;;
15281;SDS011;7742;44.320;19.820;2024-02-21T02:03:26;18.20;;;17.00;;
15281;SDS011;7742;44.320;19.820;2024-02-21T02:05:59;17.57;;;16.27;;
15281;SDS011;7742;44.320;19.820;2024-02-21T02:08:27;17.20;;;16.03;;
15281;SDS011;7742;44.320;19.820;2024-02-21T02:10:56;17.53;;;16.53;;
15281;SDS011;7742;44.320;19.820;2024-02-21T02:13:24;16.97;;;15.87;;
15281;SDS011;7742;44.320;19.820;2024-02-21T02:15:51;17.43;;;16.23;;
15281;SDS011;7742;44.320;19.820;2024-02-21T02:18:35;17.00;;;15.90;;
15281;SDS011;7742;44.320;19.820;2024-02-21T02:24:23;17.27;;;15.97;;
15281;SDS011;7742;44.320;19.820;2024-02-21T02:26:50;16.37;;;15.27;;
15281;SDS011;7742;44.320;19.820;2024-02-21T02:29:17;16.23;;;15.13;;
15281;SDS011;7742;44.320;19.820;2024-02-21T02:31:44;18.20;;;17.00;;
15281;SDS011;7742;44.320;19.820;2024-02-21T02:34:11;17.60;;;16.47;;
15281;SDS011;7742;44.320;19.820;2024-02-21T02:36:38;17.47;;;16.47;;
15281;SDS011;7742;44.320;19.820;2024-02-21T02:39:05;16.27;;;15.27;;
15281;SDS011;7742;44.320;19.820;2024-02-21T02:41:35;16.80;;;15.70;;
15281;SDS011;7742;44.320;19.820;2024-02-21T02:44:03;15.93;;;14.83;;
15281;SDS011;7742;44.320;19.820;2024-02-21T02:46:29;16.97;;;15.67;;
15281;SDS011;7742;44.320;19.820;2024-02-21T02:48:56;19.30;;;18.00;;
15281;SDS011;7742;44.320;19.820;2024-02-21T02:51:23;17.90;;;16.60;;
15281;SDS011;7742;44.320;19.820;2024-02-21T02:53:50;17.90;;;16.70;;
15281;SDS011;7742;44.320;19.820;2024-02-21T02:56:17;16.43;;;15.33;;
15281;SDS011;7742;44.320;19.820;2024-02-21T02:58:46;16.60;;;15.60;;
15281;SDS011;7742;44.320;19.820;2024-02-21T03:01:13;17.17;;;15.97;;
15281;SDS011;7742;44.320;19.820;2024-02-21T03:03:40;16.40;;;15.40;;
15281;SDS011;7742;44.320;19.820;2024-02-21T03:06:07;16.43;;;15.23;;
15281;SDS011;7742;44.320;19.820;2024-02-21T03:08:34;16.97;;;15.87;;
15281;SDS011;7742;44.320;19.820;2024-02-21T03:11:01;15.80;;;14.80;;
15281;SDS011;7742;44.320;19.820;2024-02-21T03:13:28;15.80;;;14.90;;
15281;SDS011;7742;44.320;19.820;2024-02-21T03:15:56;17.50;;;16.40;;
15281;SDS011;7742;44.320;19.820;2024-02-21T03:18:23;16.33;;;15.23;;
15281;SDS011;7742;44.320;19.820;2024-02-21T03:20:50;16.53;;;15.63;;
15281;SDS011;7742;44.320;19.820;2024-02-21T03:23:17;16.03;;;15.03;;
15281;SDS011;7742;44.320;19.820;2024-02-21T03:25:43;15.57;;;14.73;;
15281;SDS011;7742;44.320;19.820;2024-02-21T03:28:11;16.30;;;15.37;;
15281;SDS011;7742;44.320;19.820;2024-02-21T03:30:38;16.60;;;15.67;;
15281;SDS011;7742;44.320;19.820;2024-02-21T03:33:06;16.40;;;15.47;;
15281;SDS011;7742;44.320;19.820;2024-02-21T03:35:33;16.60;;;15.60;;
15281;SDS011;7742;44.320;19.820;2024-02-21T03:38:00;17.10;;;16.00;;
15281;SDS011;7742;44.320;19.820;2024-02-21T03:40:27;16.77;;;15.67;;
15281;SDS011;7742;44.320;19.820;2024-02-21T03:42:53;17.87;;;16.77;;
15281;SDS011;7742;44.320;19.820;2024-02-21T03:45:20;18.30;;;17.10;;
15281;SDS011;7742;44.320;19.820;2024-02-21T03:47:47;17.57;;;16.57;;
15281;SDS011;7742;44.320;19.820;2024-02-21T03:50:17;16.33;;;15.33;;
15281;SDS011;7742;44.320;19.820;2024-02-21T03:52:44;17.53;;;16.43;;
15281;SDS011;7742;44.320;19.820;2024-02-21T03:55:11;17.27;;;16.07;;
15281;SDS011;7742;44.320;19.820;2024-02-21T03:57:37;17.80;;;16.70;;
15281;SDS011;7742;44.320;19.820;2024-02-21T04:00:05;16.40;;;15.23;;
15281;SDS011;7742;44.320;19.820;2024-02-21T04:02:36;17.67;;;16.47;;
15281;SDS011;7742;44.320;19.820;2024-02-21T04:05:03;16.63;;;15.60;;
15281;SDS011;7742;44.320;19.820;2024-02-21T04:07:31;17.40;;;16.30;;
15281;SDS011;7742;44.320;19.820;2024-02-21T04:09:58;17.17;;;16.10;;
15281;SDS011;7742;44.320;19.820;2024-02-21T04:12:25;18.30;;;17.03;;
15281;SDS011;7742;44.320;19.820;2024-02-21T04:14:52;18.90;;;17.70;;
15281;SDS011;7742;44.320;19.820;2024-02-21T04:17:19;17.27;;;16.07;;
15281;SDS011;7742;44.320;19.820;2024-02-21T04:19:46;18.00;;;16.70;;
15281;SDS011;7742;44.320;19.820;2024-02-21T04:24:58;19.33;;;17.83;;
15281;SDS011;7742;44.320;19.820;2024-02-21T04:27:26;19.60;;;18.20;;
15281;SDS011;7742;44.320;19.820;2024-02-21T04:29:53;19.53;;;18.20;;
15281;SDS011;7742;44.320;19.820;2024-02-21T04:32:20;18.20;;;16.90;;
15281;SDS011;7742;44.320;19.820;2024-02-21T04:34:47;18.30;;;17.00;;
15281;SDS011;7742;44.320;19.820;2024-02-21T04:37:13;18.67;;;17.47;;
15281;SDS011;7742;44.320;19.820;2024-02-21T04:39:40;18.43;;;17.20;;
15281;SDS011;7742;44.320;19.820;2024-02-21T04:42:09;18.20;;;16.90;;
15281;SDS011;7742;44.320;19.820;2024-02-21T04:44:37;17.50;;;16.33;;
15281;SDS011;7742;44.320;19.820;2024-02-21T04:47:04;20.10;;;18.70;;
15281;SDS011;7742;44.320;19.820;2024-02-21T04:49:32;19.90;;;18.60;;
15281;SDS011;7742;44.320;19.820;2024-02-21T04:51:59;18.23;;;16.93;;
15281;SDS011;7742;44.320;19.820;2024-02-21T04:54:26;20.93;;;19.33;;
15281;SDS011;7742;44.320;19.820;2024-02-21T04:56:53;20.50;;;19.20;;
15281;SDS011;7742;44.320;19.820;2024-02-21T04:59:22;20.63;;;19.23;;
15281;SDS011;7742;44.320;19.820;2024-02-21T05:02:01;19.03;;;17.83;;
15281;SDS011;7742;44.320;19.820;2024-02-21T05:07:37;21.97;;;20.47;;
15281;SDS011;7742;44.320;19.820;2024-02-21T05:10:04;19.37;;;18.07;;
15281;SDS011;7742;44.320;19.820;2024-02-21T05:12:31;19.63;;;18.23;;
15281;SDS011;7742;44.320;19.820;2024-02-21T05:15:00;21.80;;;20.20;;
15281;SDS011;7742;44.320;19.820;2024-02-21T05:17:27;21.07;;;19.63;;
15281;SDS011;7742;44.320;19.820;2024-02-21T05:19:54;21.00;;;19.53;;
15281;SDS011;7742;44.320;19.820;2024-02-21T05:22:21;21.00;;;19.63;;
15281;SDS011;7742;44.320;19.820;2024-02-21T05:24:47;20.73;;;19.33;;
15281;SDS011;7742;44.320;19.820;2024-02-21T05:27:14;19.43;;;17.97;;
15281;SDS011;7742;44.320;19.820;2024-02-21T05:29:41;21.80;;;20.40;;
15281;SDS011;7742;44.320;19.820;2024-02-21T05:32:10;21.97;;;20.30;;
15281;SDS011;7742;44.320;19.820;2024-02-21T05:34:37;20.10;;;18.77;;
15281;SDS011;7742;44.320;19.820;2024-02-21T05:37:04;19.60;;;18.20;;
15281;SDS011;7742;44.320;19.820;2024-02-21T05:39:31;20.47;;;18.97;;
15281;SDS011;7742;44.320;19.820;2024-02-21T05:41:58;19.60;;;18.40;;
15281;SDS011;7742;44.320;19.820;2024-02-21T05:44:25;20.63;;;19.27;;
15281;SDS011;7742;44.320;19.820;2024-02-21T05:46:52;20.03;;;18.73;;
15281;SDS011;7742;44.320;19.820;2024-02-21T05:49:20;20.17;;;18.77;;
15281;SDS011;7742;44.320;19.820;2024-02-21T05:51:47;19.87;;;18.37;;
15281;SDS011;7742;44.320;19.820;2024-02-21T05:54:14;19.53;;;18.23;;
15281;SDS011;7742;44.320;19.820;2024-02-21T05:56:43;21.53;;;20.00;;
15281;SDS011;7742;44.320;19.820;2024-02-21T05:59:10;19.87;;;18.47;;
15281;SDS011;7742;44.320;19.820;2024-02-21T06:01:37;19.83;;;18.50;;
15281;SDS011;7742;44.320;19.820;2024-02-21T06:04:04;19.50;;;18.00;;
15281;SDS011;7742;44.320;19.820;2024-02-21T06:06:32;19.20;;;17.90;;
15281;SDS011;7742;44.320;19.820;2024-02-21T06:08:59;19.90;;;18.60;;
15281;SDS011;7742;44.320;19.820;2024-02-21T06:11:28;20.10;;;18.80;;
15281;SDS011;7742;44.320;19.820;2024-02-21T06:13:55;16.90;;;15.80;;
15281;SDS011;7742;44.320;19.820;2024-02-21T06:16:22;20.70;;;19.30;;
15281;SDS011;7742;44.320;19.820;2024-02-21T06:18:49;20.63;;;19.33;;
15281;SDS011;7742;44.320;19.820;2024-02-21T06:21:15;19.37;;;18.07;;
15281;SDS011;7742;44.320;19.820;2024-02-21T06:23:44;18.80;;;17.60;;
15281;SDS011;7742;44.320;19.820;2024-02-21T06:26:11;20.50;;;19.07;;
15281;SDS011;7742;44.320;19.820;2024-02-21T06:28:38;18.83;;;17.53;;
15281;SDS011;7742;44.320;19.820;2024-02-21T06:31:05;18.00;;;16.90;;
15281;SDS011;7742;44.320;19.820;2024-02-21T06:33:32;17.80;;;16.70;;
15281;SDS011;7742;44.320;19.820;2024-02-21T06:35:59;17.13;;;16.00;;
15281;SDS011;7742;44.320;19.820;2024-02-21T06:38:26;18.23;;;17.03;;
15281;SDS011;7742;44.320;19.820;2024-02-21T06:40:54;19.43;;;18.07;;
15281;SDS011;7742;44.320;19.820;2024-02-21T06:43:21;18.93;;;17.53;;
15281;SDS011;7742;44.320;19.820;2024-02-21T06:45:48;18.80;;;17.53;;
15281;SDS011;7742;44.320;19.820;2024-02-21T06:48:17;16.73;;;15.43;;
15281;SDS011;7742;44.320;19.820;2024-02-21T06:50:44;20.03;;;18.73;;
15281;SDS011;7742;44.320;19.820;2024-02-21T06:53:11;18.83;;;17.67;;
15281;SDS011;7742;44.320;19.820;2024-02-21T06:55:38;19.37;;;17.97;;
15281;SDS011;7742;44.320;19.820;2024-02-21T06:58:07;17.63;;;16.53;;
15281;SDS011;7742;44.320;19.820;2024-02-21T07:00:37;19.43;;;18.13;;
15281;SDS011;7742;44.320;19.820;2024-02-21T07:03:04;17.30;;;16.20;;
15281;SDS011;7742;44.320;19.820;2024-02-21T07:05:31;17.87;;;16.77;;
15281;SDS011;7742;44.320;19.820;2024-02-21T07:07:58;19.23;;;17.93;;
15281;SDS011;7742;44.320;19.820;2024-02-21T07:10:25;19.47;;;18.17;;
15281;SDS011;7742;44.320;19.820;2024-02-21T07:12:53;18.47;;;17.00;;
15281;SDS011;7742;44.320;19.820;2024-02-21T07:15:23;19.83;;;18.33;;
15281;SDS011;7742;44.320;19.820;2024-02-21T07:17:53;17.20;;;15.90;;
15281;SDS011;7742;44.320;19.820;2024-02-21T07:20:20;18.50;;;17.30;;
15281;SDS011;7742;44.320;19.820;2024-02-21T07:22:47;18.70;;;17.20;;
15281;SDS011;7742;44.320;19.820;2024-02-21T07:25:14;18.33;;;17.20;;
15281;SDS011;7742;44.320;19.820;2024-02-21T07:27:41;17.90;;;16.70;;
15281;SDS011;7742;44.320;19.820;2024-02-21T07:30:09;16.70;;;15.40;;
15281;SDS011;7742;44.320;19.820;2024-02-21T07:32:37;17.83;;;16.53;;
15281;SDS011;7742;44.320;19.820;2024-02-21T07:35:04;18.83;;;17.53;;
15281;SDS011;7742;44.320;19.820;2024-02-21T07:37:35;18.30;;;17.10;;
15281;SDS011;7742;44.320;19.820;2024-02-21T07:40:03;17.70;;;16.60;;
15281;SDS011;7742;44.320;19.820;2024-02-21T07:42:30;16.77;;;15.77;;
15281;SDS011;7742;44.320;19.820;2024-02-21T07:45:00;16.37;;;15.27;;
15281;SDS011;7742;44.320;19.820;2024-02-21T07:47:28;17.43;;;16.27;;
15281;SDS011;7742;44.320;19.820;2024-02-21T07:49:56;15.83;;;14.83;;
15281;SDS011;7742;44.320;19.820;2024-02-21T07:52:24;15.83;;;14.83;;
15281;SDS011;7742;44.320;19.820;2024-02-21T07:54:51;13.67;;;12.83;;
15281;SDS011;7742;44.320;19.820;2024-02-21T07:57:18;14.47;;;13.40;;
15281;SDS011;7742;44.320;19.820;2024-02-21T07:59:44;14.53;;;13.63;;
15281;SDS011;7742;44.320;19.820;2024-02-21T08:02:17;13.63;;;12.73;;
15281;SDS011;7742;44.320;19.820;2024-02-21T08:04:44;13.97;;;12.97;;
15281;SDS011;7742;44.320;19.820;2024-02-21T08:07:13;14.03;;;13.23;;
15281;SDS011;7742;44.320;19.820;2024-02-21T08:09:40;12.60;;;11.73;;
15281;SDS011;7742;44.320;19.820;2024-02-21T08:12:07;12.63;;;11.83;;
15281;SDS011;7742;44.320;19.820;2024-02-21T08:14:34;11.80;;;10.93;;
15281;SDS011;7742;44.320;19.820;2024-02-21T08:17:00;11.93;;;11.13;;
15281;SDS011;7742;44.320;19.820;2024-02-21T08:19:28;11.80;;;11.10;;
15281;SDS011;7742;44.320;19.820;2024-02-21T08:21:55;13.70;;;12.70;;
15281;SDS011;7742;44.320;19.820;2024-02-21T08:24:24;11.87;;;11.07;;
15281;SDS011;7742;44.320;19.820;2024-02-21T08:26:50;11.80;;;11.03;;
15281;SDS011;7742;44.320;19.820;2024-02-21T08:29:17;11.80;;;11.20;;
15281;SDS011;7742;44.320;19.820;2024-02-21T08:31:45;12.97;;;12.17;;
15281;SDS011;7742;44.320;19.820;2024-02-21T08:34:12;12.73;;;11.83;;
15281;SDS011;7742;44.320;19.820;2024-02-21T08:36:39;13.03;;;12.23;;
15281;SDS011;7742;44.320;19.820;2024-02-21T08:39:06;11.63;;;10.93;;
15281;SDS011;7742;44.320;19.820;2024-02-21T08:41:36;12.00;;;11.10;;
15281;SDS011;7742;44.320;19.820;2024-02-21T08:44:04;11.97;;;11.27;;
15281;SDS011;7742;44.320;19.820;2024-02-21T08:46:31;11.73;;;11.03;;
15281;SDS011;7742;44.320;19.820;2024-02-21T08:48:58;10.97;;;10.27;;
15281;SDS011;7742;44.320;19.820;2024-02-21T08:51:25;10.63;;;9.93;;
15281;SDS011;7742;44.320;19.820;2024-02-21T08:53:52;12.80;;;11.90;;
15281;SDS011;7742;44.320;19.820;2024-02-21T08:56:19;10.30;;;9.60;;
15281;SDS011;7742;44.320;19.820;2024-02-21T08:58:49;9.23;;;8.60;;
15281;SDS011;7742;44.320;19.820;2024-02-21T09:01:16;9.40;;;8.80;;
15281;SDS011;7742;44.320;19.820;2024-02-21T09:03:43;9.67;;;9.00;;
15281;SDS011;7742;44.320;19.820;2024-02-21T09:06:11;9.00;;;8.50;;
15281;SDS011;7742;44.320;19.820;2024-02-21T09:08:39;10.40;;;9.70;;
15281;SDS011;7742;44.320;19.820;2024-02-21T09:11:06;10.17;;;9.47;;
15281;SDS011;7742;44.320;19.820;2024-02-21T09:13:33;9.33;;;8.63;;
15281;SDS011;7742;44.320;19.820;2024-02-21T09:16:01;9.03;;;8.53;;
15281;SDS011;7742;44.320;19.820;2024-02-21T09:18:28;9.47;;;8.87;;
15281;SDS011;7742;44.320;19.820;2024-02-21T09:20:55;9.60;;;9.00;;
15281;SDS011;7742;44.320;19.820;2024-02-21T09:23:23;9.67;;;9.07;;
15281;SDS011;7742;44.320;19.820;2024-02-21T09:25:50;9.73;;;9.10;;
15281;SDS011;7742;44.320;19.820;2024-02-21T09:28:17;9.80;;;9.20;;
15281;SDS011;7742;44.320;19.820;2024-02-21T09:30:44;9.77;;;9.17;;
15281;SDS011;7742;44.320;19.820;2024-02-21T09:33:13;11.00;;;10.30;;
15281;SDS011;7742;44.320;19.820;2024-02-21T09:35:40;10.60;;;9.97;;
15281;SDS011;7742;44.320;19.820;2024-02-21T09:38:07;10.03;;;9.37;;
15281;SDS011;7742;44.320;19.820;2024-02-21T09:40:34;11.47;;;10.77;;
15281;SDS011;7742;44.320;19.820;2024-02-21T09:43:04;9.47;;;8.87;;
15281;SDS011;7742;44.320;19.820;2024-02-21T09:45:32;10.47;;;9.67;;
15281;SDS011;7742;44.320;19.820;2024-02-21T09:48:19;11.97;;;11.13;;
15281;SDS011;7742;44.320;19.820;2024-02-21T09:51:00;11.30;;;10.70;;
15281;SDS011;7742;44.320;19.820;2024-02-21T09:53:27;11.00;;;10.30;;
15281;SDS011;7742;44.320;19.820;2024-02-21T09:55:55;10.87;;;10.17;;
15281;SDS011;7742;44.320;19.820;2024-02-21T09:58:24;12.60;;;11.80;;
15281;SDS011;7742;44.320;19.820;2024-02-21T10:00:52;11.13;;;10.43;;
15281;SDS011;7742;44.320;19.820;2024-02-21T10:03:28;11.57;;;10.87;;
15281;SDS011;7742;44.320;19.820;2024-02-21T10:05:56;10.30;;;9.70;;
15281;SDS011;7742;44.320;19.820;2024-02-21T10:08:25;11.13;;;10.43;;
15281;SDS011;7742;44.320;19.820;2024-02-21T10:10:52;14.13;;;13.23;;
15281;SDS011;7742;44.320;19.820;2024-02-21T10:13:24;12.00;;;11.40;;
15281;SDS011;7742;44.320;19.820;2024-02-21T10:16:00;9.13;;;8.70;;
15281;SDS011;7742;44.320;19.820;2024-02-21T10:18:28;9.87;;;9.20;;
15281;SDS011;7742;44.320;19.820;2024-02-21T10:21:04;9.20;;;8.60;;
15281;SDS011;7742;44.320;19.820;2024-02-21T10:23:41;9.47;;;8.97;;
15281;SDS011;7742;44.320;19.820;2024-02-21T10:26:09;9.13;;;8.53;;
15281;SDS011;7742;44.320;19.820;2024-02-21T10:28:36;9.83;;;9.30;;
15281;SDS011;7742;44.320;19.820;2024-02-21T10:31:07;9.70;;;9.10;;
15281;SDS011;7742;44.320;19.820;2024-02-21T10:33:35;13.83;;;12.93;;
15281;SDS011;7742;44.320;19.820;2024-02-21T10:36:06;10.77;;;10.20;;
15281;SDS011;7742;44.320;19.820;2024-02-21T10:38:34;10.90;;;10.40;;
15281;SDS011;7742;44.320;19.820;2024-02-21T10:41:01;13.83;;;13.03;;
15281;SDS011;7742;44.320;19.820;2024-02-21T10:43:29;11.70;;;11.10;;
15281;SDS011;7742;44.320;19.820;2024-02-21T10:45:56;11.87;;;11.07;;
15281;SDS011;7742;44.320;19.820;2024-02-21T10:48:27;11.27;;;10.63;;
15281;SDS011;7742;44.320;19.820;2024-02-21T10:50:57;11.43;;;10.77;;
15281;SDS011;7742;44.320;19.820;2024-02-21T10:53:29;12.30;;;11.70;;
15281;SDS011;7742;44.320;19.820;2024-02-21T10:56:03;10.10;;;9.60;;
15281;SDS011;7742;44.320;19.820;2024-02-21T10:58:34;11.23;;;10.70;;
15281;SDS011;7742;44.320;19.820;2024-02-21T11:01:01;11.00;;;10.50;;
15281;SDS011;7742;44.320;19.820;2024-02-21T11:03:31;13.00;;;12.30;;
15281;SDS011;7742;44.320;19.820;2024-02-21T11:06:00;12.80;;;12.20;;
15281;SDS011;7742;44.320;19.820;2024-02-21T11:08:28;11.70;;;11.20;;
15281;SDS011;7742;44.320;19.820;2024-02-21T11:10:56;12.10;;;11.50;;
15281;SDS011;7742;44.320;19.820;2024-02-21T11:13:29;12.33;;;11.73;;
15281;SDS011;7742;44.320;19.820;2024-02-21T11:16:05;11.17;;;10.57;;
15281;SDS011;7742;44.320;19.820;2024-02-21T11:18:33;10.63;;;10.13;;
15281;SDS011;7742;44.320;19.820;2024-02-21T11:21:01;11.57;;;10.87;;
15281;SDS011;7742;44.320;19.820;2024-02-21T11:23:30;11.10;;;10.60;;
15281;SDS011;7742;44.320;19.820;2024-02-21T11:26:06;12.60;;;11.90;;
15281;SDS011;7742;44.320;19.820;2024-02-21T11:28:33;12.67;;;12.07;;
15281;SDS011;7742;44.320;19.820;2024-02-21T11:31:08;9.80;;;9.30;;
15281;SDS011;7742;44.320;19.820;2024-02-21T11:33:35;10.50;;;10.00;;
15281;SDS011;7742;44.320;19.820;2024-02-21T11:36:03;10.30;;;9.80;;
15281;SDS011;7742;44.320;19.820;2024-02-21T11:38:31;12.47;;;11.80;;
15281;SDS011;7742;44.320;19.820;2024-02-21T11:40:57;11.07;;;10.57;;
15281;SDS011;7742;44.320;19.820;2024-02-21T11:43:25;12.30;;;11.60;;
15281;SDS011;7742;44.320;19.820;2024-02-21T11:45:58;11.67;;;11.17;;
15281;SDS011;7742;44.320;19.820;2024-02-21T11:48:25;11.60;;;11.00;;
15281;SDS011;7742;44.320;19.820;2024-02-21T11:50:52;11.30;;;10.70;;
15281;SDS011;7742;44.320;19.820;2024-02-21T11:53:21;10.70;;;10.20;;
15281;SDS011;7742;44.320;19.820;2024-02-21T11:55:49;9.77;;;9.27;;
15281;SDS011;7742;44.320;19.820;2024-02-21T11:58:16;8.93;;;8.53;;
15281;SDS011;7742;44.320;19.820;2024-02-21T12:00:43;8.63;;;8.10;;
15281;SDS011;7742;44.320;19.820;2024-02-21T12:03:10;9.10;;;8.60;;
15281;SDS011;7742;44.320;19.820;2024-02-21T12:05:37;9.27;;;8.77;;
15281;SDS011;7742;44.320;19.820;2024-02-21T12:08:04;9.57;;;9.07;;
15281;SDS011;7742;44.320;19.820;2024-02-21T12:10:32;9.43;;;8.93;;
15281;SDS011;7742;44.320;19.820;2024-02-21T12:16:03;9.37;;;8.87;;
15281;SDS011;7742;44.320;19.820;2024-02-21T12:18:36;9.90;;;9.40;;
15281;SDS011;7742;44.320;19.820;2024-02-21T12:21:05;11.60;;;11.00;;
15281;SDS011;7742;44.320;19.820;2024-02-21T12:23:32;10.77;;;10.20;;
15281;SDS011;7742;44.320;19.820;2024-02-21T12:26:01;11.57;;;10.80;;
15281;SDS011;7742;44.320;19.820;2024-02-21T12:28:31;10.40;;;9.90;;
15281;SDS011;7742;44.320;19.820;2024-02-21T12:31:07;10.33;;;9.83;;
15281;SDS011;7742;44.320;19.820;2024-02-21T12:33:34;9.73;;;9.23;;
15281;SDS011;7742;44.320;19.820;2024-02-21T12:36:01;8.93;;;8.43;;
15281;SDS011;7742;44.320;19.820;2024-02-21T12:38:29;9.23;;;8.73;;
15281;SDS011;7742;44.320;19.820;2024-02-21T12:40:56;9.10;;;8.70;;
15281;SDS011;7742;44.320;19.820;2024-02-21T12:43:24;8.77;;;8.27;;
15281;SDS011;7742;44.320;19.820;2024-02-21T12:45:51;9.60;;;8.87;;
15281;SDS011;7742;44.320;19.820;2024-02-21T12:48:20;9.90;;;9.30;;
15281;SDS011;7742;44.320;19.820;2024-02-21T12:50:49;10.97;;;10.30;;
15281;SDS011;7742;44.320;19.820;2024-02-21T12:53:35;12.23;;;11.33;;
15281;SDS011;7742;44.320;19.820;2024-02-21T12:56:08;14.20;;;13.30;;
15281;SDS011;7742;44.320;19.820;2024-02-21T12:58:44;12.40;;;11.60;;
15281;SDS011;7742;44.320;19.820;2024-02-21T13:01:11;10.80;;;10.20;;
15281;SDS011;7742;44.320;19.820;2024-02-21T13:03:38;11.97;;;11.17;;
15281;SDS011;7742;44.320;19.820;2024-02-21T13:06:05;10.97;;;10.27;;
15281;SDS011;7742;44.320;19.820;2024-02-21T13:08:32;10.53;;;9.93;;
15281;SDS011;7742;44.320;19.820;2024-02-21T13:11:00;10.93;;;10.23;;
15281;SDS011;7742;44.320;19.820;2024-02-21T13:13:27;11.50;;;10.60;;
15281;SDS011;7742;44.320;19.820;2024-02-21T13:15:56;9.97;;;9.47;;
15281;SDS011;7742;44.320;19.820;2024-02-21T14:46:33;12.03;;;11.33;;
15281;SDS011;7742;44.320;19.820;2024-02-21T14:51:59;10.70;;;10.10;;
15281;SDS011;7742;44.320;19.820;2024-02-21T14:54:27;10.60;;;9.90;;
15281;SDS011;7742;44.320;19.820;2024-02-21T14:57:09;12.10;;;11.20;;
15281;SDS011;7742;44.320;19.820;2024-02-21T14:59:36;10.17;;;9.47;;
15281;SDS011;7742;44.320;19.820;2024-02-21T15:02:04;11.60;;;10.87;;
15281;SDS011;7742;44.320;19.820;2024-02-21T15:04:38;12.13;;;11.43;;
15281;SDS011;7742;44.320;19.820;2024-02-21T15:07:06;13.13;;;12.33;;
15281;SDS011;7742;44.320;19.820;2024-02-21T15:09:34;13.30;;;12.50;;
15281;SDS011;7742;44.320;19.820;2024-02-21T15:12:01;11.80;;;11.20;;
15281;SDS011;7742;44.320;19.820;2024-02-21T15:14:28;13.13;;;12.33;;
15281;SDS011;7742;44.320;19.820;2024-02-21T15:16:56;14.10;;;13.20;;
15281;SDS011;7742;44.320;19.820;2024-02-21T15:19:26;13.50;;;12.60;;
15281;SDS011;7742;44.320;19.820;2024-02-21T15:21:53;14.13;;;13.23;;
15281;SDS011;7742;44.320;19.820;2024-02-21T15:24:33;14.33;;;13.33;;
15281;SDS011;7742;44.320;19.820;2024-02-21T15:27:00;16.77;;;15.47;;
15281;SDS011;7742;44.320;19.820;2024-02-21T15:29:28;14.50;;;13.50;;
15281;SDS011;7742;44.320;19.820;2024-02-21T15:31:54;12.73;;;11.93;;
15281;SDS011;7742;44.320;19.820;2024-02-21T15:34:21;13.10;;;12.20;;
15281;SDS011;7742;44.320;19.820;2024-02-21T15:36:50;12.53;;;11.67;;
15281;SDS011;7742;44.320;19.820;2024-02-21T15:39:17;12.83;;;12.00;;
15281;SDS011;7742;44.320;19.820;2024-02-21T15:41:44;13.73;;;12.73;;
15281;SDS011;7742;44.320;19.820;2024-02-21T15:44:15;12.10;;;11.40;;
15281;SDS011;7742;44.320;19.820;2024-02-21T15:46:43;13.40;;;12.60;;
15281;SDS011;7742;44.320;19.820;2024-02-21T15:49:11;12.87;;;11.97;;
15281;SDS011;7742;44.320;19.820;2024-02-21T15:51:38;13.10;;;12.13;;
15281;SDS011;7742;44.320;19.820;2024-02-21T15:54:07;12.67;;;11.70;;
15281;SDS011;7742;44.320;19.820;2024-02-21T15:56:35;14.27;;;13.10;;
15281;SDS011;7742;44.320;19.820;2024-02-21T15:59:02;14.87;;;13.50;;
15281;SDS011;7742;44.320;19.820;2024-02-21T16:01:30;15.23;;;14.03;;
15281;SDS011;7742;44.320;19.820;2024-02-21T16:03:58;14.60;;;13.50;;
15281;SDS011;7742;44.320;19.820;2024-02-21T16:06:25;15.03;;;13.83;;
15281;SDS011;7742;44.320;19.820;2024-02-21T16:08:53;13.77;;;12.77;;
15281;SDS011;7742;44.320;19.820;2024-02-21T16:11:22;14.03;;;13.03;;
15281;SDS011;7742;44.320;19.820;2024-02-21T16:13:48;13.90;;;13.00;;